createdAt,value
2023-03-14T00:00:17.506Z,66.68
2023-03-14T00:02:44.037Z,66.42
2023-03-14T00:05:11.191Z,65.60
2023-03-14T00:07:39.012Z,67.11
2023-03-14T00:10:07.606Z,65.75
2023-03-14T00:12:34.146Z,66.40
2023-03-14T00:15:04.491Z,65.93
2023-03-14T00:17:31.781Z,66.67
2023-03-14T00:19:58.278Z,66.62
2023-03-14T00:22:24.808Z,66.42
2023-03-14T00:24:51.498Z,65.45
2023-03-14T00:27:17.973Z,65.59
2023-03-14T00:29:44.965Z,66.81
2023-03-14T00:32:11.512Z,66.66
2023-03-14T00:34:38.227Z,66.42
2023-03-14T00:37:04.758Z,66.68
2023-03-14T00:39:31.196Z,66.72
2023-03-14T00:41:57.698Z,64.99
2023-03-14T00:44:24.259Z,65.53
2023-03-14T00:46:50.762Z,65.92
2023-03-14T00:49:17.273Z,66.50
2023-03-14T00:51:43.731Z,65.88
2023-03-14T00:54:10.206Z,65.10
2023-03-14T00:56:36.643Z,66.43
2023-03-14T00:59:03.211Z,66.42
2023-03-14T01:01:29.730Z,66.22
2023-03-14T01:03:56.954Z,66.24
2023-03-14T01:06:26.228Z,64.96
2023-03-14T01:08:53.636Z,65.12
2023-03-14T01:11:23.101Z,66.25
2023-03-14T01:13:49.699Z,66.78
2023-03-14T01:16:16.807Z,66.11
2023-03-14T01:18:45.486Z,66.92
2023-03-14T01:21:16.370Z,68.59
2023-03-14T01:23:43.323Z,67.51
2023-03-14T01:26:12.485Z,66.58
2023-03-14T01:28:39.391Z,65.98
2023-03-14T01:31:07.997Z,65.81
2023-03-14T01:33:35.045Z,65.81
2023-03-14T01:36:03.378Z,65.68
2023-03-14T01:38:30.843Z,66.41
2023-03-14T01:40:58.158Z,67.04
2023-03-14T01:43:25.571Z,66.04
2023-03-14T01:46:07.149Z,66.25
2023-03-14T01:48:36.103Z,67.06
2023-03-14T01:51:03.700Z,65.58
2023-03-14T01:53:30.676Z,65.22
2023-03-14T01:55:58.025Z,66.76
2023-03-14T01:58:28.246Z,65.47
2023-03-14T02:00:56.340Z,65.06
2023-03-14T02:03:24.841Z,65.32
2023-03-14T02:05:52.290Z,66.55
2023-03-14T02:08:20.560Z,64.09
2023-03-14T02:10:49.949Z,65.03
2023-03-14T02:13:18.851Z,65.68
2023-03-14T02:15:45.422Z,64.63
2023-03-14T02:18:12.936Z,65.27
2023-03-14T02:21:06.919Z,67.19
2023-03-14T02:23:39.569Z,66.16
2023-03-14T02:26:22.200Z,65.92
2023-03-14T02:28:49.622Z,65.51
2023-03-14T02:31:16.496Z,66.42
2023-03-14T02:33:43.035Z,67.09
2023-03-14T02:36:13.077Z,65.44
2023-03-14T02:38:54.995Z,67.02
2023-03-14T02:41:22.261Z,66.50
2023-03-14T02:43:48.765Z,66.77
2023-03-14T02:46:18.111Z,66.16
2023-03-14T02:48:52.179Z,66.81
2023-03-14T02:51:18.835Z,67.10
2023-03-14T02:53:45.539Z,66.64
2023-03-14T02:56:12.143Z,66.60
2023-03-14T02:58:39.050Z,67.15
2023-03-14T03:01:06.083Z,66.76
2023-03-14T03:03:33.016Z,67.26
2023-03-14T03:05:59.599Z,66.89
2023-03-14T03:08:27.695Z,66.95
2023-03-14T03:10:55.048Z,67.49
2023-03-14T03:13:21.874Z,67.12
2023-03-14T03:15:48.394Z,68.69
2023-03-14T03:18:14.984Z,67.59
2023-03-14T03:20:41.420Z,67.52
2023-03-14T03:23:07.873Z,68.53
2023-03-14T03:25:34.384Z,70.07
2023-03-14T03:28:02.163Z,70.34
2023-03-14T03:30:28.837Z,70.08
2023-03-14T03:32:55.390Z,70.18
2023-03-14T03:35:21.857Z,70.75
2023-03-14T03:37:48.328Z,71.65
2023-03-14T03:40:14.881Z,72.65
2023-03-14T03:42:41.316Z,74.22
2023-03-14T03:45:08.409Z,75.36
2023-03-14T03:47:34.897Z,76.86
2023-03-14T03:50:01.388Z,81.96
2023-03-14T03:52:27.859Z,82.76
2023-03-14T03:54:54.331Z,81.32
2023-03-14T03:57:21.166Z,81.22
2023-03-14T03:59:47.638Z,81.72
2023-03-14T04:02:14.090Z,81.84
2023-03-14T04:04:40.853Z,84.27
2023-03-14T04:07:07.599Z,84.15
2023-03-14T04:09:34.069Z,85.46
2023-03-14T04:12:00.505Z,84.54
2023-03-14T04:14:27.110Z,82.92
2023-03-14T04:16:53.550Z,84.65
2023-03-14T04:19:20.072Z,82.49
2023-03-14T04:21:47.980Z,84.14
2023-03-14T04:24:14.548Z,84.23
2023-03-14T04:26:41.067Z,86.36
2023-03-14T04:29:07.548Z,85.93
2023-03-14T04:31:34.090Z,87.03
2023-03-14T04:34:00.604Z,85.90
2023-03-14T04:36:27.135Z,87.09
2023-03-14T04:38:53.604Z,86.60
2023-03-14T04:41:20.078Z,88.26
2023-03-14T04:43:46.506Z,86.28
2023-03-14T04:46:13.064Z,87.58
2023-03-14T04:48:39.756Z,90.33
2023-03-14T04:51:06.534Z,88.22
2023-03-14T04:53:33.328Z,87.33
2023-03-14T04:55:59.992Z,87.69
2023-03-14T04:58:26.525Z,88.21
2023-03-14T05:00:53.097Z,86.99
2023-03-14T05:03:20.311Z,87.55
2023-03-14T05:05:46.914Z,87.33
2023-03-14T05:08:13.821Z,86.61
2023-03-14T05:10:40.432Z,86.48
2023-03-14T05:13:06.953Z,86.49
2023-03-14T05:15:33.495Z,84.69
2023-03-14T05:18:00.012Z,84.80
2023-03-14T05:20:26.843Z,87.16
2023-03-14T05:22:53.278Z,85.12
2023-03-14T05:25:19.767Z,85.39
2023-03-14T05:27:46.298Z,85.86
2023-03-14T05:30:13.167Z,87.23
2023-03-14T05:32:39.639Z,86.88
2023-03-14T05:35:06.389Z,85.59
2023-03-14T05:37:32.842Z,85.85
2023-03-14T05:39:59.337Z,86.25
2023-03-14T05:42:25.773Z,85.55
2023-03-14T05:44:52.253Z,85.97
2023-03-14T05:47:18.744Z,86.40
2023-03-14T05:49:45.234Z,86.74
2023-03-14T05:52:11.684Z,84.56
2023-03-14T05:54:38.152Z,85.40
2023-03-14T05:57:04.621Z,85.66
2023-03-14T05:59:32.104Z,87.42
2023-03-14T06:02:00.274Z,84.89
2023-03-14T06:04:26.803Z,87.24
2023-03-14T06:06:53.287Z,85.79
2023-03-14T06:09:23.820Z,83.85
2023-03-14T06:11:50.647Z,86.80
2023-03-14T06:14:17.898Z,86.32
2023-03-14T06:16:44.450Z,85.48
2023-03-14T06:19:11.342Z,85.68
2023-03-14T06:21:37.783Z,84.97
2023-03-14T06:24:05.118Z,87.10
2023-03-14T06:26:31.593Z,88.56
2023-03-14T06:28:58.079Z,84.38
2023-03-14T06:31:24.562Z,85.94
2023-03-14T06:33:51.027Z,86.75
2023-03-14T06:36:17.496Z,86.24
2023-03-14T06:38:43.951Z,85.49
2023-03-14T06:41:11.202Z,85.48
2023-03-14T06:43:37.674Z,87.03
2023-03-14T06:46:06.515Z,85.87
2023-03-14T06:48:33.005Z,84.53
2023-03-14T06:50:59.511Z,85.26
2023-03-14T06:53:26.018Z,85.21
2023-03-14T06:55:52.499Z,86.44
2023-03-14T06:58:18.964Z,85.85
2023-03-14T07:00:45.609Z,85.16
2023-03-14T07:03:14.445Z,85.17
2023-03-14T07:05:41.625Z,85.24
2023-03-14T07:08:09.501Z,86.62
2023-03-14T07:10:36.317Z,86.68
2023-03-14T07:13:02.881Z,85.69
2023-03-14T07:15:29.374Z,85.02
2023-03-14T07:17:55.874Z,86.76
2023-03-14T07:20:22.393Z,84.58
2023-03-14T07:22:50.411Z,84.80
2023-03-14T07:25:17.509Z,83.37
2023-03-14T07:27:45.732Z,83.69
2023-03-14T07:30:13.287Z,83.33
2023-03-14T07:32:39.806Z,83.98
2023-03-14T07:35:07.043Z,84.15
2023-03-14T07:37:33.511Z,83.78
2023-03-14T07:39:59.997Z,83.78
2023-03-14T07:42:26.496Z,83.70
2023-03-14T07:44:53.527Z,83.81
2023-03-14T07:47:20.133Z,82.80
2023-03-14T07:49:46.559Z,85.07
2023-03-14T07:52:13.062Z,84.31
2023-03-14T07:54:39.508Z,85.47
2023-03-14T07:57:05.980Z,85.60
2023-03-14T07:59:32.481Z,85.57
2023-03-14T08:01:59.746Z,84.31
2023-03-14T08:04:26.196Z,85.90
2023-03-14T08:06:53.760Z,82.75
2023-03-14T08:09:20.205Z,84.50
2023-03-14T08:11:46.692Z,86.87
2023-03-14T08:14:13.195Z,84.74
2023-03-14T08:16:39.645Z,83.50
2023-03-14T08:19:06.122Z,85.96
2023-03-14T08:21:32.630Z,85.18
2023-03-14T08:23:59.099Z,85.41
2023-03-14T08:26:25.569Z,84.28
2023-03-14T08:28:52.003Z,84.83
2023-03-14T08:31:18.852Z,85.99
2023-03-14T08:33:45.362Z,85.46
2023-03-14T08:36:11.932Z,83.87
2023-03-14T08:38:38.450Z,85.47
2023-03-14T08:41:05.881Z,84.74
2023-03-14T08:43:32.349Z,84.76
2023-03-14T08:45:59.915Z,85.11
2023-03-14T08:48:26.376Z,87.39
2023-03-14T08:50:52.917Z,84.24
2023-03-14T08:53:19.734Z,87.28
2023-03-14T08:55:46.223Z,86.91
2023-03-14T08:58:12.683Z,87.67
2023-03-14T09:00:39.185Z,87.85
2023-03-14T09:03:05.654Z,85.88
2023-03-14T09:05:34.801Z,85.44
2023-03-14T09:08:01.438Z,83.42
2023-03-14T09:10:27.889Z,86.54
2023-03-14T09:12:54.357Z,88.79
2023-03-14T09:15:20.835Z,92.04
2023-03-14T09:17:47.341Z,91.14
2023-03-14T09:20:14.992Z,91.31
2023-03-14T09:22:41.750Z,91.58
2023-03-14T09:25:08.766Z,90.10
2023-03-14T09:27:35.294Z,87.46
2023-03-14T09:30:01.780Z,89.11
2023-03-14T09:32:28.291Z,90.20
2023-03-14T09:34:54.774Z,89.99
2023-03-14T09:37:22.011Z,89.41
2023-03-14T09:39:48.495Z,88.34
2023-03-14T09:42:18.686Z,93.04
2023-03-14T09:44:55.913Z,91.00
2023-03-14T09:47:23.203Z,91.17
2023-03-14T09:49:49.663Z,91.80
2023-03-14T09:52:20.315Z,90.67
2023-03-14T09:54:50.384Z,89.85
2023-03-14T09:57:21.929Z,89.28
2023-03-14T09:59:50.076Z,88.77
2023-03-14T10:02:20.910Z,89.47
2023-03-14T10:04:48.846Z,87.91
2023-03-14T10:07:35.561Z,88.50
2023-03-14T10:10:01.998Z,89.13
2023-03-14T10:12:37.478Z,88.62
2023-03-14T10:15:10.754Z,87.92
2023-03-14T10:17:47.904Z,86.30
2023-03-14T10:20:28.466Z,87.34
2023-03-14T10:22:55.417Z,86.76
2023-03-14T10:25:28.979Z,86.82
2023-03-14T10:27:55.483Z,87.12
2023-03-14T10:30:39.619Z,86.12
2023-03-14T10:33:22.092Z,86.14
2023-03-14T10:35:58.974Z,87.13
2023-03-14T10:38:31.443Z,87.70
2023-03-14T10:40:59.540Z,87.55
2023-03-14T10:43:37.009Z,86.04
2023-03-14T10:46:10.111Z,85.93
2023-03-14T10:48:38.592Z,87.85
2023-03-14T10:51:11.625Z,86.62
2023-03-14T10:53:47.415Z,86.26
2023-03-14T10:56:20.204Z,85.43
2023-03-14T10:58:51.485Z,85.44
2023-03-14T11:01:33.599Z,84.57
2023-03-14T11:04:21.343Z,81.52
2023-03-14T11:07:11.364Z,80.30
2023-03-14T11:09:54.161Z,79.81
2023-03-14T11:12:33.974Z,78.67
2023-03-14T11:15:28.533Z,78.14
2023-03-14T11:18:13.916Z,76.76
2023-03-14T11:20:46.262Z,75.96
2023-03-14T11:23:19.640Z,77.12
2023-03-14T11:26:16.602Z,76.23
2023-03-14T11:28:49.672Z,73.62
2023-03-14T11:31:27.570Z,74.44
2023-03-14T11:33:57.986Z,74.04
2023-03-14T11:36:50.366Z,73.28
2023-03-14T11:39:18.638Z,72.99
2023-03-14T11:41:50.478Z,73.84
2023-03-14T11:44:37.705Z,74.38
2023-03-14T11:47:09.348Z,74.50
2023-03-14T11:50:05.403Z,72.91
2023-03-14T11:52:34.015Z,75.89
2023-03-14T11:55:04.992Z,74.93
2023-03-14T11:57:31.599Z,73.68
2023-03-14T11:59:58.174Z,73.93
2023-03-14T12:02:34.482Z,74.12
2023-03-14T12:05:29.757Z,73.16
2023-03-14T12:08:08.586Z,74.07
2023-03-14T12:10:40.675Z,73.53
2023-03-14T12:13:12.007Z,72.96
2023-03-14T12:15:50.482Z,73.38
2023-03-14T12:18:43.594Z,73.66
2023-03-14T12:21:13.618Z,72.51
2023-03-14T12:23:52.322Z,72.28
2023-03-14T12:26:24.164Z,71.09
2023-03-14T12:29:00.307Z,69.52
2023-03-14T12:31:29.641Z,70.12
2023-03-14T12:34:04.559Z,69.51
2023-03-14T12:37:02.577Z,70.57
2023-03-14T12:39:56.973Z,70.77
2023-03-14T12:42:45.713Z,70.14
2023-03-14T12:45:28.961Z,69.84
2023-03-14T12:48:25.088Z,67.17
2023-03-14T12:51:03.122Z,63.91
2023-03-14T12:53:35.733Z,64.36
2023-03-14T12:56:29.752Z,64.32
2023-03-14T12:59:15.478Z,64.57
2023-03-14T13:01:48.680Z,63.11
2023-03-14T13:04:16.069Z,63.66
2023-03-14T13:06:55.180Z,62.51
2023-03-14T13:09:33.914Z,61.52
2023-03-14T13:12:15.190Z,61.63
2023-03-14T13:14:49.566Z,60.70
2023-03-14T13:17:34.498Z,60.20
2023-03-14T13:20:28.768Z,55.47
2023-03-14T13:22:55.392Z,53.13
2023-03-14T13:25:23.652Z,50.94
2023-03-14T13:27:56.162Z,50.54
2023-03-14T13:30:28.943Z,50.26
2023-03-14T13:32:56.559Z,50.88
2023-03-14T13:35:24.532Z,51.04
2023-03-14T13:38:16.090Z,51.23
2023-03-14T13:40:45.012Z,51.48
2023-03-14T13:43:16.056Z,52.13
2023-03-14T13:45:49.499Z,53.16
2023-03-14T13:48:16.721Z,52.75
2023-03-14T13:51:16.978Z,52.55
2023-03-14T13:53:54.636Z,53.55
2023-03-14T13:56:32.968Z,53.94
2023-03-14T13:58:59.565Z,54.36
2023-03-14T14:01:28.204Z,52.42
2023-03-14T14:03:57.069Z,51.81
2023-03-14T14:06:31.804Z,51.26
2023-03-14T14:09:02.141Z,53.15
2023-03-14T14:11:53.757Z,53.95
2023-03-14T14:14:40.371Z,54.22
2023-03-14T14:17:12.187Z,53.50
2023-03-14T14:19:39.870Z,53.74
2023-03-14T14:22:07.773Z,53.70
2023-03-14T14:24:35.525Z,53.60
2023-03-14T14:27:18.137Z,52.79
2023-03-14T14:29:46.652Z,53.79
2023-03-14T14:32:15.716Z,53.89
2023-03-14T14:34:50.643Z,55.19
2023-03-14T14:37:22.799Z,54.90
2023-03-14T14:39:50.198Z,54.19
2023-03-14T14:42:18.707Z,53.91
2023-03-14T14:44:45.625Z,51.90
2023-03-14T14:47:16.718Z,50.72
2023-03-14T14:49:43.188Z,49.92
2023-03-14T14:52:19.407Z,49.86
2023-03-14T14:54:49.582Z,50.74
2023-03-14T14:57:31.404Z,51.46
2023-03-14T15:00:05.071Z,51.54
2023-03-14T15:02:40.980Z,51.73
2023-03-14T15:05:13.812Z,53.02
2023-03-14T15:07:40.324Z,53.80
2023-03-14T15:10:07.748Z,54.38
2023-03-14T15:12:34.214Z,55.22
2023-03-14T15:15:00.732Z,54.40
2023-03-14T15:17:27.320Z,54.68
2023-03-14T15:19:53.782Z,54.65
2023-03-14T15:22:21.141Z,54.11
2023-03-14T15:24:47.587Z,54.74
2023-03-14T15:27:15.857Z,54.97
2023-03-14T15:29:42.593Z,54.59
2023-03-14T15:32:15.424Z,53.14
2023-03-14T15:34:42.030Z,54.15
2023-03-14T15:37:13.518Z,53.88
2023-03-14T15:39:40.953Z,54.67
2023-03-14T15:42:07.691Z,55.28
2023-03-14T15:44:34.151Z,54.08
2023-03-14T15:47:00.725Z,54.66
2023-03-14T15:49:27.183Z,53.22
2023-03-14T15:51:54.097Z,51.88
2023-03-14T15:54:21.330Z,50.42
2023-03-14T15:56:48.027Z,50.41
2023-03-14T15:59:14.507Z,50.03
2023-03-14T16:01:41.018Z,50.54
2023-03-14T16:04:07.515Z,50.89
2023-03-14T16:06:33.954Z,50.45
2023-03-14T16:09:00.700Z,50.57
2023-03-14T16:11:27.242Z,51.36
2023-03-14T16:13:53.691Z,52.00
2023-03-14T16:16:20.290Z,52.22
2023-03-14T16:18:46.994Z,52.98
2023-03-14T16:21:19.079Z,53.41
2023-03-14T16:23:46.016Z,54.22
2023-03-14T16:26:17.869Z,55.89
2023-03-14T16:28:45.716Z,55.86
2023-03-14T16:31:15.382Z,55.59
2023-03-14T16:33:41.927Z,56.56
2023-03-14T16:36:12.303Z,56.54
2023-03-14T16:38:40.714Z,56.93
2023-03-14T16:41:10.026Z,56.87
2023-03-14T16:43:39.807Z,56.91
2023-03-14T16:46:08.669Z,57.75
2023-03-14T16:48:35.245Z,58.03
2023-03-14T16:51:01.711Z,57.66
2023-03-14T16:53:30.093Z,57.27
2023-03-14T16:55:57.134Z,58.73
2023-03-14T16:58:23.651Z,58.07
2023-03-14T17:00:50.143Z,59.09
2023-03-14T17:03:17.694Z,58.65
2023-03-14T17:05:52.119Z,58.46
2023-03-14T17:08:20.029Z,59.00
2023-03-14T17:10:47.106Z,58.00
2023-03-14T17:13:13.989Z,62.44
2023-03-14T17:15:45.794Z,64.79
2023-03-14T17:18:12.696Z,64.77
2023-03-14T17:20:41.175Z,64.76
2023-03-14T17:23:08.551Z,63.54
2023-03-14T17:25:36.429Z,63.93
2023-03-14T17:28:03.020Z,64.34
2023-03-14T17:30:29.473Z,63.57
2023-03-14T17:32:57.421Z,63.83
2023-03-14T17:35:24.653Z,64.29
2023-03-14T17:37:51.235Z,63.51
2023-03-14T17:40:17.850Z,63.96
2023-03-14T17:42:44.336Z,63.71
2023-03-14T17:45:11.276Z,64.36
2023-03-14T17:47:37.787Z,62.94
2023-03-14T17:50:05.418Z,63.91
2023-03-14T17:52:33.451Z,63.71
2023-03-14T17:54:59.983Z,62.99
2023-03-14T17:57:26.602Z,64.08
2023-03-14T17:59:56.132Z,63.66
2023-03-14T18:02:23.929Z,63.62
2023-03-14T18:04:52.276Z,63.32
2023-03-14T18:07:20.720Z,64.04
2023-03-14T18:09:47.504Z,64.20
2023-03-14T18:12:14.293Z,64.46
2023-03-14T18:14:44.485Z,65.07
2023-03-14T18:17:15.753Z,63.46
2023-03-14T18:19:43.398Z,63.96
2023-03-14T18:22:12.131Z,64.90
2023-03-14T18:24:39.264Z,66.12
2023-03-14T18:27:06.480Z,66.88
2023-03-14T18:29:37.085Z,65.97
2023-03-14T18:32:04.113Z,67.36
2023-03-14T18:34:34.348Z,68.04
2023-03-14T18:37:02.084Z,67.66
2023-03-14T18:39:29.183Z,68.10
2023-03-14T18:42:00.003Z,67.62
2023-03-14T18:44:27.249Z,67.62
2023-03-14T18:46:55.787Z,66.71
2023-03-14T18:49:23.521Z,67.43
2023-03-14T18:51:51.381Z,65.97
2023-03-14T18:54:18.585Z,66.83
2023-03-14T18:56:45.350Z,66.51
2023-03-14T18:59:12.228Z,66.18
2023-03-14T19:01:39.111Z,66.23
2023-03-14T19:04:06.610Z,66.26
2023-03-14T19:06:33.531Z,66.46
2023-03-14T19:09:01.479Z,67.02
2023-03-14T19:11:28.312Z,66.62
2023-03-14T19:13:55.128Z,66.72
2023-03-14T19:16:22.565Z,66.40
2023-03-14T19:18:49.073Z,66.11
2023-03-14T19:21:29.252Z,66.15
2023-03-14T19:23:55.940Z,65.98
2023-03-14T19:26:22.787Z,66.87
2023-03-14T19:28:49.284Z,66.49
2023-03-14T19:31:15.847Z,67.93
2023-03-14T19:33:42.620Z,67.05
2023-03-14T19:36:22.691Z,68.42
2023-03-14T19:38:50.330Z,68.54
2023-03-14T19:41:17.426Z,68.26
2023-03-14T19:43:43.894Z,68.93
2023-03-14T19:46:10.538Z,68.79
2023-03-14T19:48:37.648Z,70.61
2023-03-14T19:51:04.417Z,70.24
2023-03-14T19:53:31.464Z,70.50
2023-03-14T19:55:58.067Z,69.98
2023-03-14T19:58:24.964Z,69.59
2023-03-14T20:00:51.647Z,69.52
2023-03-14T20:03:18.254Z,70.37
2023-03-14T20:05:44.858Z,70.97
2023-03-14T20:08:11.642Z,69.24
2023-03-14T20:10:38.390Z,70.29
2023-03-14T20:13:15.629Z,69.59
2023-03-14T20:15:46.967Z,70.19
2023-03-14T20:18:13.765Z,70.83
2023-03-14T20:20:43.408Z,70.93
2023-03-14T20:23:10.358Z,69.08
2023-03-14T20:25:37.826Z,68.71
2023-03-14T20:28:05.154Z,68.36
2023-03-14T20:30:31.999Z,69.17
2023-03-14T20:32:58.657Z,69.18
2023-03-14T20:35:25.225Z,70.19
2023-03-14T20:37:56.229Z,70.28
2023-03-14T20:40:24.249Z,68.85
2023-03-14T20:42:51.538Z,68.95
2023-03-14T20:45:18.522Z,70.86
2023-03-14T20:47:45.056Z,71.07
2023-03-14T20:50:12.687Z,71.78
2023-03-14T20:52:39.223Z,71.15
2023-03-14T20:55:06.769Z,71.98
2023-03-14T20:57:33.401Z,71.99
2023-03-14T21:00:00.145Z,70.28
2023-03-14T21:02:26.645Z,70.89
2023-03-14T21:04:53.395Z,70.58
2023-03-14T21:07:20.322Z,69.68
2023-03-14T21:09:46.896Z,69.32
2023-03-14T21:12:13.338Z,69.55
2023-03-14T21:14:40.537Z,69.52
2023-03-14T21:17:07.039Z,70.02
2023-03-14T21:19:33.625Z,70.84
2023-03-14T21:22:02.077Z,69.81
2023-03-14T21:24:29.526Z,69.13
2023-03-14T21:26:56.203Z,71.49
2023-03-14T21:29:23.760Z,72.90
2023-03-14T21:31:50.592Z,75.36
2023-03-14T21:34:17.850Z,74.01
2023-03-14T21:36:44.428Z,75.50
2023-03-14T21:39:10.930Z,74.62
2023-03-14T21:41:37.618Z,73.10
2023-03-14T21:44:04.278Z,75.36
2023-03-14T21:46:30.913Z,75.25
2023-03-14T21:48:57.590Z,74.28
2023-03-14T21:51:30.042Z,75.20
2023-03-14T21:53:57.055Z,74.89
2023-03-14T21:56:27.065Z,74.65
2023-03-14T21:58:59.216Z,75.28
2023-03-14T22:01:25.751Z,75.58
2023-03-14T22:03:53.548Z,74.51
2023-03-14T22:06:20.899Z,74.91
2023-03-14T22:08:47.730Z,73.13
2023-03-14T22:11:14.881Z,72.90
2023-03-14T22:13:41.350Z,73.75
2023-03-14T22:16:08.344Z,72.72
2023-03-14T22:18:34.931Z,71.89
2023-03-14T22:21:01.673Z,73.18
2023-03-14T22:23:28.298Z,72.35
2023-03-14T22:25:54.799Z,73.08
2023-03-14T22:28:24.140Z,72.86
2023-03-14T22:30:51.601Z,72.62
2023-03-14T22:33:19.122Z,72.36
2023-03-14T22:35:53.184Z,72.35
2023-03-14T22:38:20.023Z,72.15
2023-03-14T22:40:53.861Z,71.89
2023-03-14T22:43:20.534Z,72.02
2023-03-14T22:45:47.459Z,72.29
2023-03-14T22:48:15.273Z,73.56
2023-03-14T22:50:43.625Z,73.23
2023-03-14T22:53:13.132Z,73.04
2023-03-14T22:55:39.615Z,73.38
2023-03-14T22:58:06.365Z,73.41
2023-03-14T23:00:33.701Z,74.10
2023-03-14T23:03:00.879Z,72.85
2023-03-14T23:05:27.585Z,72.04
2023-03-14T23:07:54.179Z,73.22
2023-03-14T23:10:20.931Z,73.45
2023-03-14T23:12:47.512Z,73.74
2023-03-14T23:15:17.388Z,73.53
2023-03-14T23:17:45.499Z,74.86
2023-03-14T23:20:12.843Z,75.42
2023-03-14T23:22:39.307Z,74.74
2023-03-14T23:25:06.797Z,76.65
2023-03-14T23:27:33.846Z,77.03
2023-03-14T23:30:00.427Z,75.93
2023-03-14T23:32:28.040Z,75.32
2023-03-14T23:34:55.126Z,76.43
2023-03-14T23:37:23.468Z,75.68
2023-03-14T23:39:50.321Z,75.83
2023-03-14T23:42:17.035Z,77.92
2023-03-14T23:44:43.903Z,76.85
2023-03-14T23:47:10.432Z,76.59
2023-03-14T23:49:36.969Z,76.26
2023-03-14T23:52:03.663Z,75.81
2023-03-14T23:54:30.134Z,76.13
2023-03-14T23:56:56.631Z,76.86
2023-03-14T23:59:23.087Z,75.43
